Aviation Digital Data Service (ADDS)

Output produced by METARs form (1257 UTC 30 July 2016)
found at http://www.aviationweather.gov/adds/metars/
 
KPHL 301128Z 3012/3118 VRB03KT P6SM OVC010 
     TEMPO 3012/3013 SCT010 BKN080 
     FM301300 19006KT P6SM BKN060 
     TEMPO 3016/3020 SHRA OVC035 
     FM302000 17006KT P6SM SHRA VCTS OVC035CB 
     FM310100 14006KT 5SM SHRA BR OVC025 
     FM310400 12006KT 3SM SHRA BR OVC010 
     FM311400 18006KT P6SM -SHRA SCT015 OVC035